Terminal Aerodrome Forecast
Issued by NWS Blacksburg, VA

Current Version | Previous Version | Text Only | Print | Product List | Glossary Off
Versions: 1 2 3 4 5 6 7 8 9 10 11 12 13 14

000
FTUS41 KRNK 281138
TAFBLF
TAF
KBLF 281138Z 2812/2912 15004KT P6SM SCT050
     FM281600 14006KT P6SM BKN060
     FM290300 13005KT P6SM SCT050 BKN250
     FM291000 12006KT P6SM OVC100=

USA.gov is the U.S. government's official web portal to all federal, state and local government web resources and services.